Time;durP1;ratioP1;P1;durP2;ratioP2;P2;SDS_P1;SDS_P2;PMS_P1;PMS_P2;Temp;Humidity;BMP_temperature;BMP_pressure;BME280_temperature;BME280_humidity;BME280_pressure;Samples;Min_cycle;Max_cycle;Signal;HPM_P1;HPM_P2
2021/07/22 00:01:35;;;;;;;14.98;10.15;;;19.40;90.90;;;;;;5002002;28;20037;-74
2021/07/22 00:04:01;;;;;;;12.02;9.50;;;19.40;90.90;;;;;;5003278;28;20031;-74
2021/07/22 00:06:26;;;;;;;15.57;9.77;;;19.30;91.00;;;;;;5002326;28;20037;-74
2021/07/22 00:08:52;;;;;;;16.13;9.68;;;19.30;91.10;;;;;;4999751;28;20276;-74
2021/07/22 00:11:17;;;;;;;15.70;9.82;;;19.20;91.10;;;;;;4999549;28;20041;-74
2021/07/22 00:13:43;;;;;;;16.90;10.35;;;19.20;91.20;;;;;;5001788;28;20030;-74
2021/07/22 00:16:14;;;;;;;11.52;9.10;;;19.20;91.30;;;;;;5001767;28;20037;-74
2021/07/22 00:18:39;;;;;;;14.50;10.98;;;19.20;91.40;;;;;;5015815;28;20120;-74
2021/07/22 00:21:06;;;;;;;13.07;10.30;;;19.10;91.30;;;;;;5001968;28;20109;-74
2021/07/22 00:23:32;;;;;;;14.30;10.68;;;19.10;91.40;;;;;;4999280;28;20030;-74
2021/07/22 00:26:01;;;;;;;12.63;9.98;;;19.10;91.60;;;;;;5001348;28;20035;-74
2021/07/22 00:28:27;;;;;;;17.33;10.70;;;19.10;91.60;;;;;;4999748;28;20034;-74
2021/07/22 00:30:52;;;;;;;17.25;10.68;;;19.00;91.60;;;;;;5001097;28;20049;-74
2021/07/22 00:33:18;;;;;;;13.50;9.38;;;19.00;91.80;;;;;;5000108;28;20040;-74
2021/07/22 00:35:43;;;;;;;13.05;9.80;;;19.00;91.80;;;;;;5001135;28;20497;-74
2021/07/22 00:38:09;;;;;;;15.65;10.25;;;19.00;92.10;;;;;;4999781;28;20061;-74
2021/07/22 00:40:34;;;;;;;12.10;9.35;;;19.00;91.80;;;;;;5000466;28;20052;-74
2021/07/22 00:43:01;;;;;;;13.55;8.98;;;18.90;91.80;;;;;;4997640;28;20092;-74
2021/07/22 00:45:29;;;;;;;13.38;10.65;;;18.90;91.70;;;;;;5001208;28;20117;-74
2021/07/22 00:47:55;;;;;;;14.63;9.55;;;18.90;91.60;;;;;;5001460;28;20503;-74
2021/07/22 00:50:21;;;;;;;13.20;9.55;;;18.90;91.60;;;;;;5001521;28;20084;-74
2021/07/22 00:52:46;;;;;;;15.43;10.38;;;18.90;91.70;;;;;;5000378;28;20034;-74
2021/07/22 00:55:18;;;;;;;12.85;9.50;;;18.90;91.70;;;;;;5002018;28;20026;-74
2021/07/22 00:57:45;;;;;;;15.95;10.93;;;18.90;91.90;;;;;;4999676;28;20033;-73
2021/07/22 01:00:11;;;;;;;15.25;10.93;;;18.90;91.90;;;;;;4998639;28;20025;-73
2021/07/22 01:02:37;;;;;;;16.77;11.90;;;18.80;91.80;;;;;;5001497;28;20029;-73
2021/07/22 01:05:03;;;;;;;14.90;10.07;;;18.80;91.70;;;;;;5000318;28;20726;-74
2021/07/22 01:07:29;;;;;;;12.45;10.30;;;18.80;91.90;;;;;;5021746;23;20030;-74
2021/07/22 01:09:54;;;;;;;13.52;10.20;;;18.80;91.90;;;;;;5010020;28;20091;-71
2021/07/22 01:12:19;;;;;;;15.85;11.10;;;18.80;91.80;;;;;;5008571;28;20036;-72
2021/07/22 01:14:46;;;;;;;13.27;10.63;;;18.80;92.00;;;;;;5024753;28;20033;-71
2021/07/22 01:17:30;;;;;;;12.48;10.25;;;18.70;92.00;;;;;;5008784;28;20022;-74
2021/07/22 01:19:55;;;;;;;16.60;11.15;;;18.70;92.00;;;;;;5008856;28;20030;-73
2021/07/22 01:22:21;;;;;;;16.67;10.57;;;18.70;91.90;;;;;;5008627;28;20554;-73
2021/07/22 01:24:46;;;;;;;14.13;10.82;;;18.70;92.00;;;;;;5008144;28;20026;-73
2021/07/22 01:27:12;;;;;;;17.92;12.48;;;18.70;92.30;;;;;;5009689;28;20022;-73
2021/07/22 01:29:37;;;;;;;15.82;10.05;;;18.60;92.20;;;;;;5006735;28;20041;-73
2021/07/22 01:32:04;;;;;;;16.92;9.88;;;18.60;92.30;;;;;;5008868;28;20037;-73
2021/07/22 01:34:29;;;;;;;16.23;10.65;;;18.60;92.30;;;;;;5008593;28;20034;-73
2021/07/22 01:36:55;;;;;;;11.63;9.55;;;18.60;92.30;;;;;;5007627;28;21051;-72
2021/07/22 01:39:20;;;;;;;16.85;10.30;;;18.60;92.20;;;;;;5008828;28;20424;-73
2021/07/22 01:41:46;;;;;;;15.85;10.25;;;18.60;92.40;;;;;;5008861;28;20030;-72
2021/07/22 01:44:11;;;;;;;13.95;10.57;;;18.50;92.50;;;;;;5009528;28;20481;-73
2021/07/22 01:46:37;;;;;;;16.13;8.93;;;18.50;92.50;;;;;;5005392;28;20076;-73
2021/07/22 01:49:02;;;;;;;11.35;9.70;;;18.50;92.60;;;;;;5007234;28;20140;-73
2021/07/22 01:51:28;;;;;;;13.32;10.18;;;18.50;92.60;;;;;;5009818;28;20029;-73
2021/07/22 01:53:53;;;;;;;16.35;9.63;;;18.50;92.70;;;;;;5009054;28;20543;-73
2021/07/22 01:56:19;;;;;;;15.35;10.68;;;18.50;92.90;;;;;;5008292;28;20112;-73
2021/07/22 01:58:44;;;;;;;15.88;9.77;;;18.50;92.90;;;;;;5007380;28;20037;-73
2021/07/22 02:01:10;;;;;;;11.93;9.40;;;18.50;92.90;;;;;;5009267;28;20044;-73
2021/07/22 02:03:35;;;;;;;15.18;9.63;;;18.50;92.90;;;;;;5005420;28;20432;-73
2021/07/22 02:06:12;;;;;;;16.83;10.55;;;18.50;92.80;;;;;;5008473;28;20025;-73
2021/07/22 02:08:37;;;;;;;;;;;18.50;92.80;;;;;;5008314;28;20033;-73
2021/07/22 02:11:03;;;;;;;17.43;10.67;;;18.50;93.00;;;;;;5023480;28;20035;-73
2021/07/22 02:13:29;;;;;;;12.10;9.25;;;18.40;93.10;;;;;;5009919;28;20034;-73
2021/07/22 02:15:54;;;;;;;17.20;10.52;;;18.40;93.20;;;;;;5008027;28;20219;-73
2021/07/22 02:18:20;;;;;;;13.82;12.15;;;18.40;93.20;;;;;;5006992;28;20396;-73
2021/07/22 02:20:46;;;;;;;16.00;12.05;;;18.40;93.00;;;;;;5008951;28;20032;-73
2021/07/22 02:23:12;;;;;;;14.10;10.07;;;18.40;93.20;;;;;;5008456;28;20094;-73
2021/07/22 02:25:37;;;;;;;16.55;11.25;;;18.40;93.20;;;;;;5006736;28;20042;-73
2021/07/22 02:28:03;;;;;;;16.23;10.23;;;18.40;93.20;;;;;;5005551;28;20194;-73
2021/07/22 02:30:29;;;;;;;16.35;10.90;;;18.40;93.30;;;;;;5008741;28;20030;-73
2021/07/22 02:32:54;;;;;;;18.60;12.45;;;18.40;93.30;;;;;;5008656;28;20018;-73
2021/07/22 02:35:20;;;;;;;18.25;12.63;;;18.40;93.30;;;;;;5010486;28;20447;-73
2021/07/22 02:37:46;;;;;;;17.30;12.25;;;18.40;93.30;;;;;;5010502;28;20065;-73
2021/07/22 02:40:12;;;;;;;14.60;11.30;;;18.40;93.20;;;;;;5011734;28;20121;-73
2021/07/22 02:42:37;;;;;;;13.75;10.85;;;18.40;93.20;;;;;;5010624;28;20030;-73
2021/07/22 02:45:05;;;;;;;20.05;11.00;;;18.40;93.30;;;;;;5012920;28;20048;-73
2021/07/22 02:47:30;;;;;;;16.50;12.52;;;18.40;93.30;;;;;;5011868;28;20540;-72
2021/07/22 02:49:56;;;;;;;16.73;11.90;;;18.40;93.30;;;;;;5011408;28;20125;-73
2021/07/22 02:52:22;;;;;;;15.18;11.27;;;18.40;93.30;;;;;;5012269;28;20038;-73
2021/07/22 02:54:47;;;;;;;16.67;11.20;;;18.40;93.30;;;;;;5011747;28;20113;-73
2021/07/22 02:57:13;;;;;;;18.65;11.48;;;18.40;93.30;;;;;;5013112;28;20550;-73
2021/07/22 02:59:38;;;;;;;19.05;11.15;;;18.40;93.40;;;;;;5009219;28;20033;-73
2021/07/22 03:02:04;;;;;;;17.15;11.93;;;18.40;93.40;;;;;;5011016;28;20372;-73
2021/07/22 03:04:30;;;;;;;17.50;11.70;;;18.40;93.40;;;;;;5012602;28;20026;-73
2021/07/22 03:06:56;;;;;;;14.93;10.98;;;18.40;93.30;;;;;;5019046;28;20022;-73
2021/07/22 03:09:21;;;;;;;14.77;9.77;;;18.40;93.30;;;;;;5012036;28;20515;-73
2021/07/22 03:11:47;;;;;;;17.95;12.45;;;18.40;93.30;;;;;;5010734;28;20484;-73
2021/07/22 03:14:12;;;;;;;19.02;11.45;;;18.40;93.30;;;;;;5011837;28;20030;-73
2021/07/22 03:16:38;;;;;;;13.35;10.80;;;18.40;93.30;;;;;;5010672;28;20042;-73
2021/07/22 03:19:03;;;;;;;15.07;11.60;;;18.40;93.40;;;;;;5010862;28;20049;-73
2021/07/22 03:21:29;;;;;;;15.07;10.68;;;18.40;93.40;;;;;;5012143;28;20018;-73
2021/07/22 03:23:54;;;;;;;19.00;11.02;;;18.30;93.50;;;;;;5010435;28;20026;-73
2021/07/22 03:26:20;;;;;;;19.00;12.23;;;18.30;93.70;;;;;;5012612;28;20026;-73
2021/07/22 03:28:45;;;;;;;14.95;11.07;;;18.30;93.90;;;;;;5010980;28;20030;-73
2021/07/22 03:31:11;;;;;;;13.90;11.00;;;18.30;93.80;;;;;;5011571;28;20494;-73
2021/07/22 03:33:36;;;;;;;15.10;10.75;;;18.30;93.80;;;;;;5011473;28;20033;-73
2021/07/22 03:36:03;;;;;;;14.02;10.13;;;18.30;93.80;;;;;;5012078;28;20053;-73
2021/07/22 03:38:29;;;;;;;18.13;10.52;;;18.30;93.70;;;;;;5008434;28;20033;-73
2021/07/22 03:40:54;;;;;;;18.05;11.27;;;18.30;93.80;;;;;;5010637;28;20033;-73
2021/07/22 03:43:20;;;;;;;15.30;9.30;;;18.30;93.70;;;;;;5009815;28;20038;-73
2021/07/22 03:45:45;;;;;;;15.00;10.68;;;18.40;93.60;;;;;;5008689;28;20400;-73
2021/07/22 03:48:12;;;;;;;12.75;9.90;;;18.40;93.60;;;;;;5010388;28;20080;-73
2021/07/22 03:50:38;;;;;;;20.05;13.00;;;18.40;93.60;;;;;;5011100;28;20024;-73
2021/07/22 03:53:04;;;;;;;17.10;11.68;;;18.40;93.40;;;;;;5008327;28;20033;-73
2021/07/22 03:55:30;;;;;;;14.57;9.93;;;18.40;93.30;;;;;;5009976;28;20076;-73
2021/07/22 03:57:56;;;;;;;14.23;10.68;;;18.30;93.30;;;;;;5011780;28;20022;-73
2021/07/22 04:00:23;;;;;;;16.48;10.02;;;18.30;93.20;;;;;;5006960;28;20405;-73
2021/07/22 04:02:58;;;;;;;14.20;9.65;;;18.40;93.30;;;;;;5010887;28;20586;-73
2021/07/22 04:05:24;;;;;;;12.10;9.55;;;18.40;93.20;;;;;;5011484;28;20021;-73
2021/07/22 04:07:49;;;;;;;15.30;10.10;;;18.40;93.20;;;;;;5009887;28;20033;-73
2021/07/22 04:10:15;;;;;;;19.45;11.27;;;18.40;93.20;;;;;;5007725;28;20034;-73
2021/07/22 04:12:40;;;;;;;15.73;11.15;;;18.40;93.20;;;;;;5009963;28;20036;-73
2021/07/22 04:15:06;;;;;;;13.70;10.75;;;18.40;93.00;;;;;;5007015;28;20026;-73
2021/07/22 04:17:32;;;;;;;16.65;10.48;;;18.40;92.80;;;;;;5011962;28;20037;-73
2021/07/22 04:19:57;;;;;;;14.00;10.95;;;18.40;92.80;;;;;;5007954;28;20034;-73
2021/07/22 04:22:23;;;;;;;11.85;9.38;;;18.40;92.80;;;;;;5010777;28;20054;-73
2021/07/22 04:24:48;;;;;;;15.52;11.50;;;18.40;92.80;;;;;;5011091;28;20397;-73
2021/07/22 04:27:14;;;;;;;11.95;9.45;;;18.40;92.70;;;;;;5009501;28;20026;-73
2021/07/22 04:29:39;;;;;;;16.13;11.68;;;18.40;92.70;;;;;;5005881;28;20026;-73
2021/07/22 04:32:05;;;;;;;23.70;14.35;;;18.40;92.60;;;;;;5008352;28;20048;-73
2021/07/22 04:34:31;;;;;;;16.33;9.40;;;18.40;92.60;;;;;;5009505;28;20042;-74
2021/07/22 04:36:56;;;;;;;13.93;9.73;;;18.50;92.80;;;;;;5010830;28;20443;-74
2021/07/22 04:39:22;;;;;;;17.15;9.63;;;18.50;93.00;;;;;;5012283;28;20445;-73
2021/07/22 04:41:47;;;;;;;13.75;9.50;;;18.50;93.30;;;;;;5011873;28;20433;-73
2021/07/22 04:44:13;;;;;;;21.38;14.85;;;18.50;93.50;;;;;;5011058;28;20488;-74
2021/07/22 04:46:38;;;;;;;85.63;65.90;;;18.50;93.40;;;;;;5009631;28;20065;-74
2021/07/22 04:49:04;;;;;;;19.05;12.40;;;18.50;93.30;;;;;;5005156;28;20273;-74
2021/07/22 04:51:29;;;;;;;49.08;35.03;;;18.60;93.30;;;;;;5009773;28;20065;-74
2021/07/22 04:53:55;;;;;;;24.50;17.35;;;18.60;93.20;;;;;;5003587;28;20041;-74
2021/07/22 04:56:21;;;;;;;36.67;26.75;;;18.60;93.20;;;;;;5010182;28;20060;-74
2021/07/22 04:58:47;;;;;;;13.07;9.07;;;18.80;93.10;;;;;;5023515;28;20022;-75
2021/07/22 05:01:14;;;;;;;15.30;10.95;;;19.00;93.00;;;;;;5008446;28;20065;-74
2021/07/22 05:03:39;;;;;;;17.05;12.88;;;19.00;92.80;;;;;;5007605;28;20522;-74
2021/07/22 05:06:07;;;;;;;19.27;11.98;;;19.10;92.80;;;;;;5010116;28;20026;-74
2021/07/22 05:08:33;;;;;;;17.52;12.13;;;19.20;92.70;;;;;;5013654;28;20121;-74
2021/07/22 05:10:58;;;;;;;16.55;11.88;;;19.20;92.60;;;;;;5009963;28;20137;-74
2021/07/22 05:13:24;;;;;;;19.08;13.27;;;19.20;92.50;;;;;;5008775;28;20033;-75
2021/07/22 05:15:49;;;;;;;20.00;12.98;;;19.20;92.50;;;;;;5008798;28;20603;-73
2021/07/22 05:18:16;;;;;;;37.63;28.50;;;19.20;92.50;;;;;;5009658;28;20026;-73
2021/07/22 05:20:42;;;;;;;15.93;10.85;;;19.20;92.40;;;;;;5007874;28;20033;-73
2021/07/22 05:23:07;;;;;;;15.55;9.85;;;19.10;92.60;;;;;;5008085;28;20105;-73
2021/07/22 05:25:33;;;;;;;13.82;9.90;;;19.00;92.80;;;;;;5008431;28;20101;-73
2021/07/22 05:27:58;;;;;;;15.63;10.88;;;19.00;93.00;;;;;;5006713;28;20030;-73
2021/07/22 05:30:24;;;;;;;20.48;12.13;;;19.00;93.00;;;;;;5009242;28;20105;-73
2021/07/22 05:32:49;;;;;;;13.02;8.93;;;19.00;93.10;;;;;;5009553;28;20034;-73
2021/07/22 05:35:15;;;;;;;17.48;10.45;;;19.00;93.10;;;;;;5010232;28;20026;-73
2021/07/22 05:37:40;;;;;;;13.98;10.73;;;18.90;93.10;;;;;;5008222;28;20026;-73
2021/07/22 05:40:06;;;;;;;12.48;9.35;;;18.90;93.20;;;;;;5009802;28;20034;-73
2021/07/22 05:42:32;;;;;;;12.85;10.10;;;18.80;93.10;;;;;;5023132;28;20033;-73
2021/07/22 05:44:58;;;;;;;12.70;9.10;;;18.80;93.10;;;;;;5009777;28;20500;-73
2021/07/22 05:47:23;;;;;;;15.02;10.85;;;18.80;93.20;;;;;;5010302;28;20022;-73
2021/07/22 05:49:49;;;;;;;16.42;10.32;;;18.80;93.30;;;;;;5009537;28;20026;-73
2021/07/22 05:52:15;;;;;;;19.55;11.80;;;18.70;93.10;;;;;;5007703;28;20064;-74
2021/07/22 05:54:40;;;;;;;13.05;10.02;;;18.70;93.00;;;;;;5004017;28;20026;-74
2021/07/22 05:57:05;;;;;;;13.05;10.30;;;18.70;92.90;;;;;;5006517;28;20119;-74
2021/07/22 05:59:31;;;;;;;17.77;13.18;;;18.70;92.70;;;;;;5008210;28;20451;-74
2021/07/22 06:01:56;;;;;;;13.90;9.70;;;18.70;92.50;;;;;;5008921;28;20462;-74
2021/07/22 06:04:22;;;;;;;15.13;11.15;;;18.70;92.40;;;;;;5009691;28;20054;-74
2021/07/22 06:06:47;;;;;;;15.48;10.95;;;18.70;92.50;;;;;;5008489;28;20061;-74
2021/07/22 06:09:13;;;;;;;14.65;10.75;;;18.70;92.50;;;;;;5006206;28;20037;-73
2021/07/22 06:11:38;;;;;;;14.25;10.63;;;18.70;92.40;;;;;;5005055;28;20034;-72
2021/07/22 06:14:04;;;;;;;19.23;11.20;;;18.60;92.50;;;;;;5006113;28;20121;-72
2021/07/22 06:16:30;;;;;;;14.57;11.65;;;18.60;92.40;;;;;;5007307;28;20029;-72
2021/07/22 06:18:56;;;;;;;17.08;10.52;;;18.60;92.40;;;;;;5008016;28;20484;-73
2021/07/22 06:21:21;;;;;;;16.58;10.82;;;18.70;92.50;;;;;;5008472;28;20105;-75
2021/07/22 06:23:47;;;;;;;13.30;9.85;;;18.70;92.40;;;;;;5008828;28;20431;-74
2021/07/22 06:26:12;;;;;;;15.65;10.73;;;18.70;92.40;;;;;;5008121;28;20034;-75
2021/07/22 06:28:38;;;;;;;18.20;11.02;;;18.70;92.70;;;;;;5007718;28;20043;-76
2021/07/22 06:31:04;;;;;;;17.02;10.65;;;18.70;92.50;;;;;;5008765;28;20092;-75
2021/07/22 06:33:29;;;;;;;18.38;10.98;;;18.80;92.40;;;;;;5008971;28;20156;-76
2021/07/22 06:35:55;;;;;;;13.98;10.45;;;18.70;92.30;;;;;;5007916;28;20036;-73
2021/07/22 06:38:20;;;;;;;15.45;10.30;;;18.70;92.50;;;;;;5008665;28;20046;-73
2021/07/22 06:40:46;;;;;;;17.90;12.02;;;18.80;92.50;;;;;;5008849;28;20018;-72
2021/07/22 06:43:12;;;;;;;14.85;11.43;;;18.80;92.30;;;;;;5007776;28;20041;-73
2021/07/22 06:45:41;;;;;;;17.50;11.95;;;18.80;92.30;;;;;;5008166;28;20022;-74
2021/07/22 06:48:08;;;;;;;17.15;10.20;;;18.80;92.20;;;;;;5007942;28;20033;-74
2021/07/22 06:50:34;;;;;;;14.07;10.10;;;18.80;92.40;;;;;;5008477;28;20018;-74
2021/07/22 06:53:02;;;;;;;16.35;11.10;;;18.80;92.40;;;;;;5023500;28;20477;-74
2021/07/22 06:55:27;;;;;;;13.85;10.82;;;18.80;92.30;;;;;;5008621;28;20109;-74
2021/07/22 06:57:53;;;;;;;15.90;11.13;;;18.90;92.40;;;;;;5007984;28;20173;-74
2021/07/22 07:00:19;;;;;;;13.75;10.70;;;19.00;92.50;;;;;;5007014;28;20504;-75
2021/07/22 07:02:45;;;;;;;14.57;10.00;;;19.00;92.40;;;;;;5008505;28;20396;-73
2021/07/22 07:05:11;;;;;;;16.55;11.60;;;19.00;92.40;;;;;;5008820;28;20483;-74
2021/07/22 07:07:36;;;;;;;21.83;10.75;;;19.10;92.50;;;;;;5007716;28;20065;-75
2021/07/22 07:10:02;;;;;;;14.20;10.13;;;19.20;92.40;;;;;;5008100;28;20046;-73
2021/07/22 07:12:27;;;;;;;16.73;11.75;;;19.30;92.30;;;;;;5006818;28;20026;-73
2021/07/22 07:14:53;;;;;;;20.08;11.00;;;19.40;92.30;;;;;;5008361;28;20026;-73
2021/07/22 07:17:18;;;;;;;18.27;10.93;;;19.50;92.10;;;;;;5007321;28;20030;-73
2021/07/22 07:19:44;;;;;;;20.02;12.10;;;19.50;92.10;;;;;;5006471;28;20080;-72
2021/07/22 07:22:10;;;;;;;26.60;11.48;;;19.60;92.00;;;;;;5011660;28;20461;-72
2021/07/22 07:24:35;;;;;;;15.45;10.90;;;19.60;91.90;;;;;;5011752;28;20029;-72
2021/07/22 07:27:01;;;;;;;13.57;11.05;;;19.70;92.00;;;;;;5012052;28;20076;-72
2021/07/22 07:29:27;;;;;;;15.23;11.18;;;19.80;91.90;;;;;;5011439;28;20041;-74
2021/07/22 07:31:58;;;;;;;16.25;11.13;;;19.80;91.90;;;;;;5011586;28;20072;-75
2021/07/22 07:34:23;;;;;;;13.68;10.77;;;19.90;91.90;;;;;;5010607;28;20037;-75
2021/07/22 07:36:49;;;;;;;15.85;10.50;;;19.90;91.80;;;;;;5010071;28;20029;-74
2021/07/22 07:39:16;;;;;;;19.30;12.18;;;20.00;91.70;;;;;;5010128;28;20433;-74
2021/07/22 07:41:42;;;;;;;19.95;11.75;;;20.10;91.70;;;;;;5010609;28;20018;-74
2021/07/22 07:44:07;;;;;;;15.35;10.73;;;20.20;91.60;;;;;;5011327;28;20104;-73
2021/07/22 07:46:33;;;;;;;14.00;10.40;;;20.30;91.70;;;;;;5011944;28;20109;-75
2021/07/22 07:48:59;;;;;;;16.05;11.93;;;20.30;91.70;;;;;;5010284;28;20156;-75
2021/07/22 07:51:24;;;;;;;13.82;10.75;;;20.40;91.50;;;;;;5009621;28;20026;-75
2021/07/22 07:53:50;;;;;;;21.20;11.77;;;20.60;91.40;;;;;;5008958;28;20025;-73
2021/07/22 07:56:16;;;;;;;18.50;11.15;;;20.60;91.30;;;;;;5010098;28;20049;-73
2021/07/22 07:58:41;;;;;;;15.15;11.57;;;20.70;91.30;;;;;;5009694;28;20042;-73
2021/07/22 08:01:07;;;;;;;19.42;12.48;;;20.70;91.20;;;;;;5008839;28;20206;-74
2021/07/22 08:03:32;;;;;;;17.05;11.75;;;20.70;91.10;;;;;;5011093;28;20068;-74
2021/07/22 08:05:58;;;;;;;18.33;12.80;;;20.70;91.10;;;;;;5010275;28;20384;-74
2021/07/22 08:08:23;;;;;;;23.08;14.48;;;20.70;91.00;;;;;;5010668;28;20034;-74
2021/07/22 08:10:49;;;;;;;29.30;13.90;;;20.70;91.00;;;;;;5010729;28;20033;-73
2021/07/22 08:13:14;;;;;;;20.90;13.63;;;20.70;91.10;;;;;;5009906;28;20026;-73
2021/07/22 08:15:43;;;;;;;22.98;12.95;;;20.80;91.00;;;;;;5011003;28;20488;-74
2021/07/22 08:18:10;;;;;;;17.75;11.85;;;20.90;90.80;;;;;;5010456;28;20366;-73
2021/07/22 08:20:36;;;;;;;29.23;12.38;;;20.90;90.70;;;;;;5011198;28;20040;-74
2021/07/22 08:23:03;;;;;;;16.42;11.82;;;21.00;90.60;;;;;;5009341;28;20042;-74
2021/07/22 08:25:28;;;;;;;15.90;12.43;;;21.10;90.50;;;;;;5009561;28;20034;-74
2021/07/22 08:27:54;;;;;;;16.42;11.25;;;21.20;90.20;;;;;;5010730;28;20401;-74
2021/07/22 08:30:19;;;;;;;15.05;9.70;;;21.20;89.80;;;;;;5009182;28;20112;-73
2021/07/22 08:32:46;;;;;;;20.40;11.77;;;21.20;89.60;;;;;;5010331;28;20378;-73
2021/07/22 08:35:12;;;;;;;15.32;11.32;;;21.30;89.20;;;;;;5010968;28;20018;-74
2021/07/22 08:37:38;;;;;;;16.98;11.32;;;21.30;88.90;;;;;;5009937;28;20554;-74
2021/07/22 08:40:05;;;;;;;19.08;11.48;;;21.30;88.60;;;;;;5009679;28;20113;-73
2021/07/22 08:42:40;;;;;;;19.92;12.25;;;21.30;88.50;;;;;;5025382;28;20034;-74
2021/07/22 08:45:06;;;;;;;14.48;10.63;;;21.40;88.80;;;;;;5025119;28;20032;-73
2021/07/22 08:47:32;;;;;;;20.40;11.02;;;21.50;88.50;;;;;;5025198;28;20022;-73
2021/07/22 08:49:58;;;;;;;16.50;11.35;;;21.60;88.30;;;;;;5009918;28;20692;-73
2021/07/22 08:52:23;;;;;;;18.80;11.43;;;21.70;87.80;;;;;;5009985;28;20026;-73
2021/07/22 08:54:49;;;;;;;15.70;11.70;;;21.80;87.20;;;;;;5016988;28;20026;-72
2021/07/22 08:57:17;;;;;;;14.57;10.38;;;21.90;86.50;;;;;;5008853;28;20116;-72
2021/07/22 08:59:43;;;;;;;19.90;12.57;;;21.80;86.30;;;;;;5005734;28;20483;-74
2021/07/22 09:02:14;;;;;;;14.38;10.95;;;21.90;86.40;;;;;;5008392;28;20042;-77
2021/07/22 09:04:57;;;;;;;16.90;11.20;;;22.10;86.00;;;;;;5010929;28;20040;-80
2021/07/22 09:07:29;;;;;;;15.55;11.43;;;22.20;85.90;;;;;;5012072;28;20540;-79
2021/07/22 09:10:07;;;;;;;22.38;13.20;;;22.30;85.20;;;;;;5007894;28;20108;-80
2021/07/22 09:12:35;;;;;;;19.05;12.55;;;22.30;84.10;;;;;;5005748;28;20128;-75
2021/07/22 09:15:02;;;;;;;17.25;11.90;;;22.20;84.60;;;;;;5009790;28;20041;-76
2021/07/22 09:17:27;;;;;;;15.27;11.73;;;22.10;84.90;;;;;;5007366;28;20504;-76
2021/07/22 09:19:53;;;;;;;12.50;9.30;;;22.10;85.10;;;;;;5005128;28;20116;-76
2021/07/22 09:22:33;;;;;;;14.63;10.68;;;22.20;85.10;;;;;;5008854;28;20030;-77
2021/07/22 09:24:59;;;;;;;18.48;12.35;;;22.40;85.20;;;;;;5029301;28;20058;-78
2021/07/22 09:27:32;;;;;;;15.82;11.43;;;22.60;85.00;;;;;;5006769;28;20479;-79
2021/07/22 09:29:59;;;;;;;19.60;11.63;;;22.80;84.70;;;;;;5005897;28;20030;-76
2021/07/22 09:32:31;;;;;;;15.48;10.70;;;23.10;84.40;;;;;;5007172;28;20030;-79
2021/07/22 09:35:24;;;;;;;16.75;12.07;;;23.30;83.10;;;;;;5007035;28;20033;-79
2021/07/22 09:37:52;;;;;;;16.65;10.57;;;23.40;82.80;;;;;;5005730;28;20595;-79
2021/07/22 09:40:24;;;;;;;15.40;10.70;;;23.70;83.10;;;;;;5007053;28;20649;-79
2021/07/22 09:42:50;;;;;;;17.27;10.75;;;23.80;81.80;;;;;;5008540;28;20022;-79
2021/07/22 09:45:19;;;;;;;13.13;10.65;;;23.80;81.50;;;;;;5016108;28;20111;-75
2021/07/22 09:47:46;;;;;;;18.48;12.07;;;23.80;80.30;;;;;;5007487;28;20030;-79
2021/07/22 09:50:20;;;;;;;20.42;12.65;;;23.80;80.80;;;;;;5006338;28;20033;-78
2021/07/22 09:52:47;;;;;;;14.02;10.23;;;23.80;80.30;;;;;;5014495;28;20025;-76
2021/07/22 09:55:29;;;;;;;13.30;11.00;;;23.90;80.50;;;;;;5008320;28;20038;-78
2021/07/22 09:57:57;;;;;;;16.05;12.90;;;23.80;79.70;;;;;;5026712;28;20037;-76
2021/07/22 10:00:24;;;;;;;16.48;13.20;;;23.70;79.40;;;;;;5007833;28;20033;-77
2021/07/22 10:02:51;;;;;;;17.75;11.88;;;23.60;79.20;;;;;;5009964;28;20476;-77
2021/07/22 10:05:21;;;;;;;15.57;12.32;;;23.40;79.40;;;;;;5007169;28;20022;-75
2021/07/22 10:07:48;;;;;;;23.05;11.93;;;23.40;79.70;;;;;;5007799;28;20030;-77
2021/07/22 10:10:15;;;;;;;18.77;12.25;;;23.40;80.10;;;;;;5005196;28;20030;-75
2021/07/22 10:12:48;;;;;;;21.38;13.10;;;23.40;80.10;;;;;;5007867;28;20465;-75
2021/07/22 10:15:15;;;;;;;14.25;12.07;;;23.40;79.50;;;;;;5006707;28;20034;-73
2021/07/22 10:17:41;;;;;;;19.27;12.75;;;23.30;79.60;;;;;;5005246;28;20123;-78
2021/07/22 10:20:08;;;;;;;21.20;14.07;;;23.30;80.30;;;;;;5006753;28;20129;-74
2021/07/22 10:22:37;;;;;;;22.55;14.68;;;23.30;79.80;;;;;;5008148;28;20026;-75
2021/07/22 10:25:03;;;;;;;20.42;13.77;;;23.20;79.90;;;;;;5009062;28;20084;-75
2021/07/22 10:27:28;;;;;;;18.35;12.75;;;23.10;80.20;;;;;;5006807;28;20030;-74
2021/07/22 10:29:54;;;;;;;22.42;14.45;;;23.00;80.30;;;;;;5004022;28;20030;-73
2021/07/22 10:32:27;;;;;;;20.10;13.10;;;22.90;80.60;;;;;;5008277;28;20117;-73
2021/07/22 10:34:54;;;;;;;17.48;13.43;;;22.90;80.90;;;;;;5028595;28;20495;-73
2021/07/22 10:37:21;;;;;;;23.20;15.38;;;23.00;80.70;;;;;;5031335;28;20117;-73
2021/07/22 10:40:09;;;;;;;18.20;12.55;;;23.00;79.80;;;;;;5005067;28;20033;-74
2021/07/22 10:42:48;;;;;;;18.88;12.63;;;23.00;80.70;;;;;;5007778;28;20038;-73
2021/07/22 10:45:19;;;;;;;18.00;11.95;;;23.10;80.70;;;;;;5007420;28;20120;-74
2021/07/22 10:48:07;;;;;;;17.73;11.35;;;23.20;80.80;;;;;;5032563;28;20029;-75
2021/07/22 10:50:54;;;;;;;16.85;12.45;;;23.40;80.70;;;;;;4999407;28;20018;-74
2021/07/22 10:53:39;;;;;;;17.27;11.25;;;23.50;80.10;;;;;;5006856;28;20509;-74
2021/07/22 10:56:09;;;;;;;16.97;12.47;;;23.60;80.00;;;;;;5004260;28;20069;-73
2021/07/22 10:58:46;;;;;;;21.17;14.68;;;23.70;79.60;;;;;;5027737;28;20048;-75
2021/07/22 11:01:11;;;;;;;20.05;11.75;;;23.70;79.30;;;;;;5011274;28;20026;-74
2021/07/22 11:03:53;;;;;;;16.85;12.23;;;23.80;79.70;;;;;;5016841;28;20029;-75
2021/07/22 11:06:19;;;;;;;20.73;13.40;;;23.90;79.20;;;;;;5013837;28;20095;-73
2021/07/22 11:09:04;;;;;;;24.05;15.15;;;24.00;78.30;;;;;;5008470;28;20034;-74
2021/07/22 11:11:46;;;;;;;16.85;13.05;;;23.90;77.90;;;;;;5018104;28;20084;-75
2021/07/22 11:14:31;;;;;;;24.40;14.93;;;23.90;78.20;;;;;;5017959;28;20033;-75
2021/07/22 11:16:58;;;;;;;18.67;13.65;;;23.70;77.60;;;;;;5010205;28;20036;-75
2021/07/22 11:19:23;;;;;;;19.42;14.38;;;23.50;78.10;;;;;;5010779;28;20496;-76
2021/07/22 11:21:50;;;;;;;15.60;11.35;;;23.50;78.50;;;;;;5010909;28;20037;-74
2021/07/22 11:24:22;;;;;;;23.75;15.20;;;23.50;78.60;;;;;;5010242;28;20026;-76
2021/07/22 11:26:50;;;;;;;18.75;13.73;;;23.60;78.60;;;;;;5008802;28;20022;-75
2021/07/22 11:29:18;;;;;;;20.17;13.27;;;23.70;78.30;;;;;;5015808;28;20034;-74
2021/07/22 11:31:44;;;;;;;19.75;14.65;;;23.70;78.60;;;;;;5010490;28;20103;-76
2021/07/22 11:34:10;;;;;;;16.92;13.90;;;23.70;78.10;;;;;;5010167;28;20037;-75
2021/07/22 11:36:36;;;;;;;18.83;14.80;;;23.60;77.90;;;;;;5010553;28;20084;-75
2021/07/22 11:39:04;;;;;;;22.40;13.93;;;23.60;78.00;;;;;;5009901;28;20034;-74
2021/07/22 11:41:29;;;;;;;20.42;15.10;;;23.60;78.10;;;;;;5008505;28;20041;-74
2021/07/22 11:43:57;;;;;;;21.38;14.55;;;23.60;77.70;;;;;;5017502;28;20022;-75
2021/07/22 11:46:43;;;;;;;22.98;16.05;;;23.40;76.80;;;;;;5010907;28;20409;-73
2021/07/22 11:49:15;;;;;;;18.40;14.32;;;23.20;77.30;;;;;;5010538;28;20509;-73
2021/07/22 11:51:48;;;;;;;18.83;14.05;;;23.00;77.70;;;;;;5010140;28;20033;-73
2021/07/22 11:54:17;;;;;;;21.92;14.55;;;22.90;77.80;;;;;;5010194;28;20497;-73
2021/07/22 11:56:45;;;;;;;18.40;13.18;;;22.80;78.20;;;;;;5010800;28;20068;-72
2021/07/22 11:59:11;;;;;;;16.35;12.70;;;22.80;78.10;;;;;;5008928;28;20540;-72
2021/07/22 12:01:53;;;;;;;16.73;13.90;;;22.80;78.40;;;;;;5011033;28;20121;-72
2021/07/22 12:04:35;;;;;;;16.98;13.20;;;22.80;77.60;;;;;;5007095;28;20034;-74
2021/07/22 12:07:07;;;;;;;20.67;13.00;;;22.80;77.90;;;;;;5024820;28;20034;-73
2021/07/22 12:09:32;;;;;;;16.65;11.85;;;22.80;78.30;;;;;;5007603;28;20030;-73
2021/07/22 12:12:01;;;;;;;19.38;10.73;;;22.90;77.90;;;;;;5010711;28;20786;-72
2021/07/22 12:14:35;;;;;;;17.20;13.05;;;22.80;78.00;;;;;;5008641;28;20123;-73
2021/07/22 12:17:04;;;;;;;15.93;12.27;;;22.80;77.70;;;;;;5024834;28;20223;-73
2021/07/22 12:19:31;;;;;;;20.05;12.18;;;22.80;77.80;;;;;;5009343;28;20119;-74
2021/07/22 12:22:20;;;;;;;20.95;11.80;;;22.80;78.40;;;;;;5009356;28;20030;-73
2021/07/22 12:24:50;;;;;;;18.60;11.50;;;22.80;77.50;;;;;;5005662;28;20030;-73
2021/07/22 12:27:34;;;;;;;17.42;11.25;;;22.90;77.30;;;;;;5023998;28;20037;-74
2021/07/22 12:30:05;;;;;;;16.17;12.00;;;22.80;77.00;;;;;;5032474;28;20152;-72